Latest Weather Observations for Bickley

IDW60901

Issued at 7:45 am WST Saturday 20 September 2014 (issued every 10 minutes, with the page automatically refreshed every 10 minutes)

About weather observations | Map of Perth area stations | Latest observations for Perth area | Other Formats
Station Details ID: 009240 Name: BICKLEY Lat: -32.01 Lon: 116.14 Height: 384.0 m
Data from the previous 72 hours. | See also: Recent months at Bickley
Date/Time
WST
Tmp

°C
App
Tmp
°C
Dew
Point
°C
Rel
Hum
%
Delta-T

°C
Wind Press
QNH
hPa
Press
MSL
hPa
Rain
since
9 am
mm
Dir
 
Spd
km/h
Gust
km/h
Spd
kts
Gust
kts
20/07:30am 13.6 - 9.1 74 2.3 - - - - - - - 0.0
20/07:00am 12.2 - 8.9 80 1.7 - - - - - - - 0.0
20/06:30am 11.5 - 8.5 82 1.5 - - - - - - - 0.0
20/06:00am 11.3 - 8.9 85 1.2 - - - - - - - 0.0
20/05:30am 11.4 - 9.1 86 1.2 - - - - - - - 0.0
20/05:00am 11.4 - 9.7 89 0.9 - - - - - - - 0.0
20/04:30am 11.7 - 10.1 90 0.8 - - - - - - - 0.0
20/04:00am 11.7 - 10.4 92 0.7 - - - - - - - 0.0
20/03:30am 12.1 - 10.5 90 0.8 - - - - - - - 0.0
20/03:00am 12.3 - 10.5 89 1.0 - - - - - - - 0.0
20/02:30am 12.4 - 10.6 89 1.0 - - - - - - - 0.0
20/02:00am 12.7 - 10.8 88 1.0 - - - - - - - 0.0
20/01:30am 13.1 - 10.8 86 1.2 - - - - - - - 0.0
20/01:00am 13.5 - 10.9 84 1.4 - - - - - - - 0.0
20/12:30am 13.7 - 10.7 82 1.6 - - - - - - - 0.0
20/12:00am 13.8 - 10.4 80 1.8 - - - - - - - 0.0
 
Date/Time
WST
Tmp

°C
App
Tmp
°C
Dew
Point
°C
Rel
Hum
%
Delta-T

°C
Wind Press
QNH
hPa
Press
MSL
hPa
Rain
since
9 am
mm
Dir
 
Spd
km/h
Gust
km/h
Spd
kts
Gust
kts
19/11:30pm 14.3 - 10.3 77 2.1 - - - - - - - 0.0
19/11:00pm 14.5 - 10.3 76 2.2 - - - - - - - 0.0
19/10:30pm 14.8 - 10.2 74 2.5 - - - - - - - 0.0
19/10:00pm 14.8 - 10.4 75 2.4 - - - - - - - 0.0
19/09:30pm 14.9 - 11.1 78 2.1 - - - - - - - 0.0
19/09:00pm 15.5 - 12.3 81 1.8 - - - - - - - 0.0
19/08:30pm 16.0 - 13.8 87 1.3 - - - - - - - 0.0
19/08:00pm 16.0 - 14.2 89 1.0 - - - - - - - 0.0
19/07:30pm 16.6 - 14.2 86 1.4 - - - - - - - 0.0
19/07:00pm 17.2 - 14.3 83 1.7 - - - - - - - 0.0
19/06:30pm 18.5 - 13.8 74 2.7 - - - - - - - 0.0
19/06:00pm 19.3 - 13.5 69 3.4 - - - - - - - 0.0
19/05:30pm 20.4 - 12.6 61 4.5 - - - - - - - 0.0
19/05:00pm 22.2 - 11.9 52 5.9 - - - - - - - 0.0
19/04:30pm 22.9 - 10.3 45 7.0 - - - - - - - 0.0
19/04:00pm 23.1 - 10.9 46 6.9 - - - - - - - 0.0
19/03:30pm 23.0 - 10.8 46 6.9 - - - - - - - 0.0
19/03:00pm 23.2 - 11.9 49 6.5 - - - - - - - 0.0
19/02:30pm 22.4 - 11.8 51 6.1 - - - - - - - 0.0
19/02:00pm 21.3 - 10.8 51 5.9 - - - - - - - 0.0
19/01:30pm 20.9 - 11.3 54 5.4 - - - - - - - 0.0
19/01:00pm 21.7 - 11.7 53 5.7 - - - - - - - 0.0
19/12:30pm 20.1 - 11.8 59 4.7 - - - - - - - 0.0
19/12:00pm 20.5 - 11.7 57 5.0 - - - - - - - 0.0
19/11:30am 20.0 - 12.5 62 4.3 - - - - - - - 0.0
19/11:00am 19.8 - 13.0 65 3.9 - - - - - - - 0.0
19/10:30am 18.8 - 12.8 68 3.4 - - - - - - - 0.0
19/10:00am 18.3 - 13.0 71 3.0 - - - - - - - 0.0
19/09:30am 17.3 - 13.0 76 2.4 - - - - - - - 0.0
19/09:00am 16.1 - 13.0 82 1.8 - - - - - - - 0.0
19/08:30am 14.9 - 12.9 88 1.1 - - - - - - - 0.0
19/08:00am 14.3 - 13.5 95 0.5 - - - - - - - 0.0
19/07:30am 13.0 - 12.8 99 0.1 - - - - - - - 0.0
19/07:00am 12.0 - 11.8 99 0.1 - - - - - - - 0.0
19/06:30am 11.6 - 11.4 99 0.1 - - - - - - - 0.0
19/06:00am 11.3 - 11.1 99 0.1 - - - - - - - 0.0
19/05:30am 11.3 - 11.1 99 0.1 - - - - - - - 0.0
19/05:00am 11.4 - 11.2 99 0.1 - - - - - - - 0.0
19/04:30am 11.5 - 11.3 99 0.1 - - - - - - - 0.0
19/04:00am 11.9 - 11.7 99 0.1 - - - - - - - 0.0
19/03:30am 12.2 - 11.9 98 0.2 - - - - - - - 0.0
19/03:00am 12.6 - 12.0 96 0.3 - - - - - - - 0.0
19/02:30am 13.2 - 12.1 93 0.6 - - - - - - - 0.0
19/02:00am 12.6 - 12.0 96 0.3 - - - - - - - 0.0
19/01:30am 12.7 - 12.2 97 0.3 - - - - - - - 0.0
19/01:00am 12.5 - 12.3 99 0.1 - - - - - - - 0.0
19/12:30am 12.4 - 12.2 99 0.1 - - - - - - - 0.0
19/12:00am 12.3 - 12.1 99 0.1 - - - - - - - 0.0
 
Date/Time
WST
Tmp

°C
App
Tmp
°C
Dew
Point
°C
Rel
Hum
%
Delta-T

°C
Wind Press
QNH
hPa
Press
MSL
hPa
Rain
since
9 am
mm
Dir
 
Spd
km/h
Gust
km/h
Spd
kts
Gust
kts
18/11:30pm 12.3 - 12.1 99 0.1 - - - - - - - 0.0
18/11:00pm 12.5 - 12.3 99 0.1 - - - - - - - 0.0
18/10:30pm 13.0 - 12.7 98 0.2 - - - - - - - 0.0
18/10:00pm 13.5 - 13.0 97 0.3 - - - - - - - 0.0
18/09:30pm 13.5 - 13.0 97 0.3 - - - - - - - 0.0
18/09:00pm 13.5 - 12.9 96 0.3 - - - - - - - 0.0
18/08:30pm 14.0 - 13.2 95 0.4 - - - - - - - 0.0
18/08:00pm 14.3 - 13.3 94 0.6 - - - - - - - 0.0
18/07:30pm 14.5 - 13.7 95 0.5 - - - - - - - 0.0
18/07:00pm 14.8 - 13.7 93 0.6 - - - - - - - 0.0
18/06:30pm 15.2 - 13.9 92 0.7 - - - - - - - 0.0
18/06:00pm 16.2 - 13.7 85 1.4 - - - - - - - 0.0
18/05:30pm 17.2 - 13.9 81 1.9 - - - - - - - 0.0
18/05:00pm 18.6 - 12.4 67 3.5 - - - - - - - 0.0
18/04:30pm 19.3 - 10.8 58 4.7 - - - - - - - 0.0
18/04:00pm 20.5 - 10.6 53 5.5 - - - - - - - 0.0
18/03:30pm 21.1 - 11.4 54 5.5 - - - - - - - 0.0
18/03:00pm 21.1 - 11.2 53 5.6 - - - - - - - 0.0
18/02:30pm 22.2 - 11.3 50 6.2 - - - - - - - 0.0
18/02:00pm 22.4 - 12.1 52 5.9 - - - - - - - 0.0
18/01:30pm 21.9 - 9.4 45 6.8 - - - - - - - 0.0
18/01:00pm 22.2 - 11.3 50 6.2 - - - - - - - 0.0
18/12:30pm 21.8 - 11.8 53 5.7 - - - - - - - 0.0
18/12:00pm 22.2 - 11.9 52 5.9 - - - - - - - 0.0
18/11:30am 21.9 - 12.7 56 5.3 - - - - - - - 0.0
18/11:00am 21.4 - 11.7 54 5.5 - - - - - - - 0.0
18/10:30am 20.5 - 11.2 55 5.2 - - - - - - - 0.0
18/10:00am 19.5 - 10.8 57 4.8 - - - - - - - 0.0
18/09:30am 18.4 - 11.0 62 4.1 - - - - - - - 0.0
18/09:00am 17.2 - 10.6 65 3.6 - - - - - - - 0.0
18/08:30am 16.7 - 10.1 65 3.5 - - - - - - - 0.0
18/08:00am 14.8 - 10.2 74 2.5 - - - - - - - 0.0
18/07:30am 13.2 - 10.0 81 1.7 - - - - - - - 0.0
18/07:00am 11.7 - 9.9 89 0.9 - - - - - - - 0.0
18/06:30am 11.8 - 9.2 84 1.3 - - - - - - - 0.0
18/06:00am 12.6 - 9.1 79 1.8 - - - - - - - 0.0
18/05:30am 13.1 - 8.4 73 2.4 - - - - - - - 0.0
18/05:00am 13.6 - 8.4 71 2.7 - - - - - - - 0.0
18/04:30am 14.1 - 9.3 73 2.5 - - - - - - - 0.0
18/04:00am 14.3 - 9.3 72 2.6 - - - - - - - 0.0
18/03:30am 15.0 - 9.1 68 3.1 - - - - - - - 0.0
18/03:00am 15.0 - 9.6 70 2.8 - - - - - - - 0.0
18/02:30am 15.2 - 10.2 72 2.7 - - - - - - - 0.0
18/02:00am 15.4 - 10.6 73 2.6 - - - - - - - 0.0
18/01:30am 15.3 - 11.1 76 2.3 - - - - - - - 0.0
18/01:00am 15.1 - 11.3 78 2.1 - - - - - - - 0.0
18/12:30am 15.2 - 11.2 77 2.2 - - - - - - - 0.0
18/12:00am 15.4 - 11.2 76 2.3 - - - - - - - 0.0
 
Date/Time
WST
Tmp

°C
App
Tmp
°C
Dew
Point
°C
Rel
Hum
%
Delta-T

°C
Wind Press
QNH
hPa
Press
MSL
hPa
Rain
since
9 am
mm
Dir
 
Spd
km/h
Gust
km/h
Spd
kts
Gust
kts
17/11:30pm 15.7 - 11.3 75 2.4 - - - - - - - 0.0
17/11:00pm 15.4 - 11.2 76 2.3 - - - - - - - 0.0
17/10:30pm 15.7 - 11.3 75 2.4 - - - - - - - 0.0
17/10:00pm 15.9 - 11.5 75 2.4 - - - - - - - 0.0
17/09:30pm 16.2 - 11.6 74 2.5 - - - - - - - 0.0
17/09:00pm 16.7 - 11.6 72 2.8 - - - - - - - 0.0
17/08:30pm 17.1 - 11.8 71 2.9 - - - - - - - 0.0
17/08:00pm 16.9 - 12.0 73 2.7 - - - - - - - 0.0
17/07:30pm 16.7 - 13.0 79 2.1 - - - - - - - 0.0
17/07:00pm 17.2 - 13.3 78 2.2 - - - - - - - 0.0
17/06:30pm 18.1 - 13.4 74 2.7 - - - - - - - 0.0
17/06:00pm 19.3 - 13.9 71 3.2 - - - - - - - 0.0
17/05:30pm 20.3 - 14.4 69 3.5 - - - - - - - 0.0
17/05:00pm 22.2 - 12.2 53 5.8 - - - - - - - 0.0
17/04:30pm 22.8 - 12.4 52 6.0 - - - - - - - 0.0
17/04:00pm 23.4 - 11.8 48 6.7 - - - - - - - 0.0
17/03:30pm 23.5 - 14.5 57 5.4 - - - - - - - 0.0
17/03:00pm 23.5 - 13.7 54 5.8 - - - - - - - 0.0
17/02:30pm 23.9 - 13.4 51 6.2 - - - - - - - 0.0
17/02:00pm 24.7 - 13.6 50 6.6 - - - - - - - 0.0
17/01:30pm 25.0 - 11.6 43 7.7 - - - - - - - 0.0
17/01:00pm 24.5 - 10.8 42 7.8 - - - - - - - 0.0
17/12:30pm 24.0 - 11.3 45 7.3 - - - - - - - 0.0
17/12:00pm 23.3 - 11.0 46 7.0 - - - - - - - 0.0
17/11:30am 22.8 - 11.2 48 6.6 - - - - - - - 0.0
17/11:00am 22.5 - 10.9 48 6.5 - - - - - - - 0.0
17/10:30am 21.1 - 10.3 50 6.0 - - - - - - - 0.0
17/10:00am 19.6 - 10.6 56 5.0 - - - - - - - 0.0
17/09:30am 18.1 - 11.0 63 3.9 - - - - - - - 0.0
17/09:00am 16.5 - 10.1 66 3.4 - - - - - - - -
17/08:30am 14.8 - 10.4 75 2.4 - - - - - - - -
17/08:00am 12.9 - 9.0 77 2.0 - - - - - - - -

Latest Capital City Observations: Canberra | Sydney | Melbourne | Brisbane | Adelaide | Perth | Hobart | Darwin

Other Formats:

Comma delimited format used in spreadsheet applications
http://www.bom.gov.au/fwo/IDW60901/IDW60901.95610.axf

JavaScript Object Notation format (JSON) in row-major order
http://www.bom.gov.au/fwo/IDW60901/IDW60901.95610.json